createdAt,value
2022-11-08T00:01:58.262Z,14.70
2022-11-08T00:04:25.121Z,14.70
2022-11-08T00:07:10.608Z,14.60
2022-11-08T00:09:55.866Z,14.60
2022-11-08T00:12:41.299Z,14.50
2022-11-08T00:15:08.607Z,14.50
2022-11-08T00:17:35.291Z,14.40
2022-11-08T00:20:01.947Z,14.40
2022-11-08T00:22:31.745Z,14.40
2022-11-08T00:24:58.733Z,14.40
2022-11-08T00:27:25.543Z,14.40
2022-11-08T00:29:52.284Z,14.40
2022-11-08T00:32:20.683Z,14.40
2022-11-08T00:34:48.647Z,14.40
2022-11-08T00:37:16.450Z,14.40
2022-11-08T00:39:43.142Z,14.30
2022-11-08T00:42:10.252Z,14.40
2022-11-08T00:44:36.911Z,14.30
2022-11-08T00:47:03.592Z,14.40
2022-11-08T00:49:30.260Z,14.30
2022-11-08T00:51:57.064Z,14.40
2022-11-08T00:54:23.877Z,14.30
2022-11-08T00:56:50.560Z,14.40
2022-11-08T00:59:18.825Z,14.40
2022-11-08T01:01:46.128Z,14.40
2022-11-08T01:04:14.593Z,14.40
2022-11-08T01:06:41.312Z,14.40
2022-11-08T01:09:08.286Z,14.40
2022-11-08T01:11:35.140Z,14.40
2022-11-08T01:16:46.381Z,14.40
2022-11-08T01:19:13.439Z,14.40
2022-11-08T01:21:40.102Z,14.40
2022-11-08T01:24:07.069Z,14.40
2022-11-08T01:26:33.771Z,14.40
2022-11-08T01:29:00.481Z,14.40
2022-11-08T01:31:29.190Z,14.40
2022-11-08T01:33:56.003Z,14.40
2022-11-08T01:36:23.814Z,14.40
2022-11-08T01:38:50.673Z,14.40
2022-11-08T01:41:18.142Z,14.40
2022-11-08T01:43:55.407Z,14.40
2022-11-08T01:46:31.179Z,14.40
2022-11-08T01:49:09.714Z,14.50
2022-11-08T01:51:55.606Z,14.50
2022-11-08T01:54:39.884Z,14.50
2022-11-08T01:57:08.666Z,14.50
2022-11-08T01:59:35.809Z,14.50
2022-11-08T02:02:02.618Z,14.50
2022-11-08T02:04:29.441Z,14.60
2022-11-08T02:06:56.364Z,14.50
2022-11-08T02:09:23.053Z,14.50
2022-11-08T02:11:49.724Z,14.50
2022-11-08T02:14:16.876Z,14.60
2022-11-08T02:16:43.629Z,14.50
2022-11-08T02:19:14.177Z,14.60
2022-11-08T02:21:46.563Z,14.60
2022-11-08T02:24:13.513Z,14.70
2022-11-08T02:26:40.249Z,14.70
2022-11-08T02:29:42.525Z,14.70
2022-11-08T02:32:11.153Z,14.60
2022-11-08T02:34:55.150Z,14.50
2022-11-08T02:37:22.115Z,14.40
2022-11-08T02:39:48.935Z,14.40
2022-11-08T02:42:16.533Z,14.40
2022-11-08T02:44:43.297Z,14.40
2022-11-08T02:47:09.974Z,14.50
2022-11-08T02:49:36.995Z,14.50
2022-11-08T02:52:04.058Z,14.60
2022-11-08T02:54:30.712Z,14.60
2022-11-08T02:56:57.366Z,14.60
2022-11-08T02:59:24.010Z,14.70
2022-11-08T03:01:50.753Z,14.70
2022-11-08T03:04:17.628Z,14.70
2022-11-08T03:06:44.290Z,14.70
2022-11-08T03:09:11.499Z,14.70
2022-11-08T03:11:38.149Z,14.70
2022-11-08T03:14:04.838Z,14.70
2022-11-08T03:16:31.481Z,14.70
2022-11-08T03:18:58.548Z,14.70
2022-11-08T03:21:25.223Z,14.60
2022-11-08T03:23:51.934Z,14.70
2022-11-08T03:26:18.658Z,14.60
2022-11-08T03:28:45.325Z,14.60
2022-11-08T03:31:11.966Z,14.60
2022-11-08T03:33:39.077Z,14.50
2022-11-08T03:36:05.983Z,14.40
2022-11-08T03:38:32.628Z,14.40
2022-11-08T03:40:59.281Z,14.30
2022-11-08T03:43:26.599Z,14.30
2022-11-08T03:45:53.261Z,14.30
2022-11-08T03:48:20.482Z,14.30
2022-11-08T03:50:47.568Z,14.20
2022-11-08T03:53:14.267Z,14.20
2022-11-08T03:55:42.179Z,14.20
2022-11-08T03:58:09.041Z,14.20
2022-11-08T04:00:35.669Z,14.20
2022-11-08T04:03:03.322Z,14.20
2022-11-08T04:05:32.114Z,14.20
2022-11-08T04:08:00.255Z,14.10
2022-11-08T04:10:26.938Z,14.10
2022-11-08T04:13:12.064Z,14.00
2022-11-08T04:15:38.838Z,13.90
2022-11-08T04:18:24.053Z,13.80
2022-11-08T04:21:09.174Z,13.80
2022-11-08T04:23:36.394Z,13.80
2022-11-08T04:26:05.106Z,13.70
2022-11-08T04:28:33.021Z,13.70
2022-11-08T04:31:02.891Z,13.70
2022-11-08T04:33:29.657Z,13.70
2022-11-08T04:35:56.463Z,13.70
2022-11-08T04:38:23.153Z,13.70
2022-11-08T04:40:49.836Z,13.70
2022-11-08T04:43:16.513Z,13.70
2022-11-08T04:45:43.159Z,13.70
2022-11-08T04:48:09.793Z,13.70
2022-11-08T04:50:36.664Z,13.70
2022-11-08T04:53:03.414Z,13.70
2022-11-08T04:55:30.076Z,13.70
2022-11-08T04:58:00.078Z,13.60
2022-11-08T05:00:27.000Z,13.60
2022-11-08T05:02:53.759Z,13.60
2022-11-08T05:05:20.712Z,13.50
2022-11-08T05:07:47.346Z,13.50
2022-11-08T05:10:14.011Z,13.40
2022-11-08T05:12:40.697Z,13.40
2022-11-08T05:15:08.155Z,13.30
2022-11-08T05:17:34.838Z,13.30
2022-11-08T05:20:20.266Z,13.30
2022-11-08T05:23:05.711Z,13.30
2022-11-08T05:25:32.444Z,13.30
2022-11-08T05:27:59.091Z,13.30
2022-11-08T05:30:25.740Z,13.30
2022-11-08T05:32:52.908Z,13.30
2022-11-08T05:35:21.644Z,13.20
2022-11-08T05:37:48.528Z,13.20
2022-11-08T05:40:15.262Z,13.10
2022-11-08T05:42:41.895Z,13.00
2022-11-08T05:45:09.654Z,13.00
2022-11-08T05:47:37.004Z,13.00
2022-11-08T05:50:03.987Z,12.90
2022-11-08T05:52:31.066Z,12.90
2022-11-08T05:54:57.876Z,12.90
2022-11-08T05:57:24.529Z,12.90
2022-11-08T05:59:51.166Z,12.80
2022-11-08T06:02:18.568Z,12.90
2022-11-08T06:04:45.349Z,12.90
2022-11-08T06:07:12.047Z,12.90
2022-11-08T06:09:40.124Z,12.90
2022-11-08T06:12:07.105Z,12.90
2022-11-08T06:14:34.144Z,12.90
2022-11-08T06:17:00.823Z,12.90
2022-11-08T06:19:27.622Z,13.00
2022-11-08T06:21:54.453Z,13.00
2022-11-08T06:24:21.089Z,13.00
2022-11-08T06:26:47.778Z,13.00
2022-11-08T06:29:14.594Z,13.00
2022-11-08T06:31:43.198Z,13.00
2022-11-08T06:34:10.329Z,13.00
2022-11-08T06:36:37.068Z,13.00
2022-11-08T06:39:03.875Z,13.10
2022-11-08T06:41:30.608Z,13.00
2022-11-08T06:43:57.264Z,13.00
2022-11-08T06:46:23.938Z,13.10
2022-11-08T06:48:50.751Z,13.10
2022-11-08T06:51:17.588Z,13.10
2022-11-08T06:53:44.471Z,13.10
2022-11-08T06:56:11.204Z,13.20
2022-11-08T06:58:38.159Z,13.20
2022-11-08T07:01:06.150Z,13.20
2022-11-08T07:03:33.305Z,13.30
2022-11-08T07:06:04.213Z,13.30
2022-11-08T07:08:31.953Z,13.30
2022-11-08T07:10:58.712Z,13.30
2022-11-08T07:13:25.386Z,13.30
2022-11-08T07:15:52.162Z,13.40
2022-11-08T07:18:19.445Z,13.40
2022-11-08T07:20:46.289Z,13.40
2022-11-08T07:23:13.116Z,13.30
2022-11-08T07:25:39.900Z,13.00
2022-11-08T07:28:07.749Z,12.70
2022-11-08T07:30:35.788Z,12.50
2022-11-08T07:33:02.638Z,12.40
2022-11-08T07:35:29.380Z,12.30
2022-11-08T07:37:56.094Z,12.30
2022-11-08T07:40:23.033Z,12.20
2022-11-08T07:43:10.695Z,12.20
2022-11-08T07:45:36.552Z,12.20
2022-11-08T07:48:11.573Z,12.30
2022-11-08T07:50:39.726Z,12.20
2022-11-08T07:53:06.569Z,12.30
2022-11-08T07:55:36.010Z,12.30
2022-11-08T07:58:03.408Z,12.30
2022-11-08T08:00:30.792Z,12.40
2022-11-08T08:02:59.076Z,12.40
2022-11-08T08:05:27.319Z,12.40
2022-11-08T08:07:57.222Z,12.50
2022-11-08T08:10:24.169Z,12.50
2022-11-08T08:12:50.910Z,12.60
2022-11-08T08:15:17.739Z,12.60
2022-11-08T08:17:44.611Z,12.70
2022-11-08T08:20:11.958Z,12.70
2022-11-08T08:22:46.502Z,12.80
2022-11-08T08:25:13.456Z,12.70
2022-11-08T08:27:40.156Z,12.80
2022-11-08T08:30:07.497Z,12.80
2022-11-08T08:32:34.623Z,12.80
2022-11-08T08:35:01.468Z,12.90
2022-11-08T08:37:28.344Z,12.90
2022-11-08T08:39:54.998Z,12.90
2022-11-08T08:42:21.731Z,13.00
2022-11-08T08:44:48.464Z,13.00
2022-11-08T08:47:15.143Z,13.10
2022-11-08T08:49:41.846Z,13.10
2022-11-08T08:52:08.523Z,13.20
2022-11-08T08:54:35.320Z,13.20
2022-11-08T08:57:02.038Z,13.20
2022-11-08T09:02:16.757Z,13.20
2022-11-08T09:04:43.427Z,13.20
2022-11-08T09:07:10.156Z,13.30
2022-11-08T09:09:37.564Z,13.30
2022-11-08T09:12:08.044Z,13.30
2022-11-08T09:14:38.363Z,13.30
2022-11-08T09:17:05.429Z,13.20
2022-11-08T09:19:32.071Z,13.20
2022-11-08T09:21:58.923Z,13.20
2022-11-08T09:24:25.647Z,13.30
2022-11-08T09:26:52.437Z,13.30
2022-11-08T09:29:19.289Z,13.40
2022-11-08T09:31:46.234Z,13.50
2022-11-08T09:34:15.105Z,13.50
2022-11-08T09:36:44.484Z,13.70
2022-11-08T09:39:11.197Z,13.70
2022-11-08T09:42:10.400Z,13.90
2022-11-08T09:44:52.532Z,14.00
2022-11-08T09:47:27.201Z,14.00
2022-11-08T09:49:54.062Z,14.20
2022-11-08T09:52:23.608Z,14.20
2022-11-08T09:54:50.754Z,14.30
2022-11-08T09:57:23.547Z,14.30
2022-11-08T09:59:59.139Z,14.30
2022-11-08T10:02:27.401Z,14.40
2022-11-08T10:05:02.614Z,14.50
2022-11-08T10:07:31.209Z,14.50
2022-11-08T10:10:16.797Z,14.60
2022-11-08T10:13:26.150Z,14.70
2022-11-08T10:16:44.204Z,14.70
2022-11-08T10:19:26.043Z,14.70
2022-11-08T10:22:00.268Z,14.60
2022-11-08T10:25:00.068Z,14.50
2022-11-08T10:27:35.813Z,14.40
2022-11-08T10:30:08.183Z,14.30
2022-11-08T10:32:34.893Z,14.20
2022-11-08T10:35:38.763Z,14.10
2022-11-08T10:38:16.929Z,14.00
2022-11-08T10:40:54.473Z,14.10
2022-11-08T10:43:32.633Z,14.10
2022-11-08T10:45:59.410Z,14.10
2022-11-08T10:48:26.150Z,14.20
2022-11-08T10:50:53.021Z,14.30
2022-11-08T10:53:30.177Z,14.30
2022-11-08T10:56:01.931Z,14.40
2022-11-08T10:58:39.120Z,14.60
2022-11-08T11:01:20.240Z,14.80
2022-11-08T11:03:47.583Z,14.90
2022-11-08T11:06:32.514Z,15.00
2022-11-08T11:09:03.231Z,15.00
2022-11-08T11:11:32.906Z,15.00
2022-11-08T11:14:22.109Z,14.90
2022-11-08T11:16:57.942Z,14.90
2022-11-08T11:19:25.676Z,14.80
2022-11-08T11:22:01.857Z,14.70
2022-11-08T11:24:28.561Z,14.40
2022-11-08T11:27:01.082Z,14.10
2022-11-08T11:29:34.973Z,13.70
2022-11-08T11:32:21.431Z,13.50
2022-11-08T11:34:56.333Z,13.40
2022-11-08T11:37:36.524Z,13.40
2022-11-08T11:40:49.960Z,13.50
2022-11-08T11:43:30.985Z,13.60
2022-11-08T11:46:06.037Z,13.60
2022-11-08T11:48:36.605Z,13.60
2022-11-08T11:51:03.488Z,13.80
2022-11-08T11:53:38.805Z,14.00
2022-11-08T11:56:27.937Z,14.20
2022-11-08T11:59:32.540Z,14.50
2022-11-08T12:02:37.090Z,14.90
2022-11-08T12:05:33.965Z,15.10
2022-11-08T12:08:04.493Z,15.10
2022-11-08T12:10:42.941Z,15.00
2022-11-08T12:13:17.301Z,15.00
2022-11-08T12:15:48.962Z,15.00
2022-11-08T12:18:41.484Z,15.20
2022-11-08T12:21:31.275Z,15.20
2022-11-08T12:24:12.060Z,15.20
2022-11-08T12:26:49.834Z,15.20
2022-11-08T12:29:38.589Z,15.50
2022-11-08T12:32:34.144Z,15.70
2022-11-08T12:35:20.257Z,15.80
2022-11-08T12:38:05.589Z,15.80
2022-11-08T12:40:58.778Z,15.80
2022-11-08T12:43:50.694Z,15.70
2022-11-08T12:46:18.650Z,15.50
2022-11-08T12:49:06.642Z,15.50
2022-11-08T12:51:40.625Z,15.40
2022-11-08T12:54:44.172Z,15.40
2022-11-08T12:57:13.317Z,15.30
2022-11-08T12:59:47.649Z,15.30
2022-11-08T13:02:23.155Z,15.30
2022-11-08T13:05:24.637Z,15.40
2022-11-08T13:07:54.040Z,15.40
2022-11-08T13:10:56.343Z,15.30
2022-11-08T13:13:27.502Z,15.20
2022-11-08T13:16:17.504Z,14.90
2022-11-08T13:18:57.731Z,14.70
2022-11-08T13:21:30.387Z,14.70
2022-11-08T13:24:09.802Z,14.70
2022-11-08T13:26:44.573Z,14.70
2022-11-08T13:29:17.986Z,14.80
2022-11-08T13:31:56.657Z,14.80
2022-11-08T13:34:53.940Z,14.90
2022-11-08T13:37:29.962Z,14.90
2022-11-08T13:39:56.670Z,15.00
2022-11-08T13:42:23.380Z,14.90
2022-11-08T13:44:55.564Z,14.90
2022-11-08T13:47:34.467Z,14.90
2022-11-08T13:50:29.098Z,14.80
2022-11-08T13:53:20.330Z,14.80
2022-11-08T13:55:48.403Z,14.60
2022-11-08T13:58:42.978Z,14.50
2022-11-08T14:01:18.912Z,14.40
2022-11-08T14:03:51.614Z,13.80
2022-11-08T14:06:42.875Z,12.70
2022-11-08T14:09:14.706Z,12.10
2022-11-08T14:12:05.848Z,12.10
2022-11-08T14:14:48.867Z,12.10
2022-11-08T14:17:30.153Z,12.20
2022-11-08T14:19:59.200Z,12.20
2022-11-08T14:22:29.631Z,12.20
2022-11-08T14:25:07.513Z,12.20
2022-11-08T14:27:35.470Z,12.10
2022-11-08T14:30:02.462Z,11.90
2022-11-08T14:32:29.738Z,11.80
2022-11-08T14:35:14.559Z,11.70
2022-11-08T14:37:42.775Z,11.70
2022-11-08T14:40:23.873Z,11.60
2022-11-08T14:42:50.769Z,11.60
2022-11-08T14:45:21.823Z,11.60
2022-11-08T14:48:03.608Z,11.60
2022-11-08T14:50:34.332Z,11.50
2022-11-08T14:53:26.444Z,11.40
2022-11-08T14:56:05.921Z,11.40
2022-11-08T14:58:32.675Z,11.40
2022-11-08T15:01:00.087Z,11.40
2022-11-08T15:03:29.046Z,11.50
2022-11-08T15:05:56.478Z,11.50
2022-11-08T15:08:25.950Z,11.60
2022-11-08T15:11:28.198Z,11.60
2022-11-08T15:14:19.042Z,11.80
2022-11-08T15:16:47.390Z,12.50
2022-11-08T15:19:17.860Z,13.10
2022-11-08T15:21:49.305Z,13.30
2022-11-08T15:24:16.254Z,13.30
2022-11-08T15:27:19.763Z,13.30
2022-11-08T15:29:49.536Z,13.30
2022-11-08T15:32:17.680Z,13.10
2022-11-08T15:34:44.544Z,13.00
2022-11-08T15:37:35.633Z,13.00
2022-11-08T15:40:04.432Z,13.20
2022-11-08T15:42:31.787Z,13.30
2022-11-08T15:45:01.385Z,13.10
2022-11-08T15:47:43.297Z,12.90
2022-11-08T15:50:23.834Z,12.70
2022-11-08T15:52:58.209Z,12.50
2022-11-08T15:55:28.008Z,12.40
2022-11-08T15:57:54.675Z,12.30
2022-11-08T16:00:24.100Z,12.20
2022-11-08T16:02:51.235Z,12.10
2022-11-08T16:05:19.734Z,12.00
2022-11-08T16:07:46.536Z,11.90
2022-11-08T16:10:13.615Z,11.90
2022-11-08T16:12:42.336Z,11.80
2022-11-08T16:15:32.313Z,11.70
2022-11-08T16:17:59.686Z,11.60
2022-11-08T16:20:30.902Z,11.60
2022-11-08T16:22:58.418Z,11.60
2022-11-08T16:25:26.108Z,11.60
2022-11-08T16:27:55.845Z,11.50
2022-11-08T16:30:22.594Z,11.50
2022-11-08T16:32:49.480Z,11.40
2022-11-08T16:35:16.340Z,11.40
2022-11-08T16:37:43.837Z,11.40
2022-11-08T16:40:21.312Z,11.40
2022-11-08T16:42:48.571Z,11.30
2022-11-08T16:45:15.897Z,11.40
2022-11-08T16:47:43.987Z,11.30
2022-11-08T16:50:17.993Z,11.30
2022-11-08T16:52:44.779Z,11.20
2022-11-08T16:55:17.442Z,11.20
2022-11-08T16:57:44.745Z,11.20
2022-11-08T17:00:13.273Z,11.20
2022-11-08T17:02:46.060Z,11.20
2022-11-08T17:05:19.113Z,11.20
2022-11-08T17:07:45.816Z,11.20
2022-11-08T17:10:15.021Z,11.20
2022-11-08T17:12:41.841Z,11.30
2022-11-08T17:15:15.954Z,11.30
2022-11-08T17:17:42.637Z,11.40
2022-11-08T17:20:13.375Z,11.40
2022-11-08T17:22:40.920Z,11.40
2022-11-08T17:25:08.078Z,11.40
2022-11-08T17:27:34.784Z,11.40
2022-11-08T17:30:02.076Z,11.50
2022-11-08T17:32:29.090Z,11.50
2022-11-08T17:34:55.806Z,11.50
2022-11-08T17:37:23.353Z,11.50
2022-11-08T17:39:50.035Z,11.50
2022-11-08T17:42:16.829Z,11.50
2022-11-08T17:44:43.570Z,11.50
2022-11-08T17:47:10.486Z,11.60
2022-11-08T17:49:42.730Z,11.60
2022-11-08T17:52:11.712Z,11.50
2022-11-08T17:54:38.427Z,11.60
2022-11-08T17:57:05.097Z,11.60
2022-11-08T17:59:32.055Z,11.60
2022-11-08T18:01:58.888Z,11.60
2022-11-08T18:04:25.651Z,11.60
2022-11-08T18:06:52.697Z,11.60
2022-11-08T18:09:19.524Z,11.70
2022-11-08T18:11:48.915Z,11.60
2022-11-08T18:14:16.538Z,11.60
2022-11-08T18:16:43.260Z,11.70
2022-11-08T18:19:11.252Z,11.70
2022-11-08T18:21:37.975Z,11.70
2022-11-08T18:24:05.049Z,11.70
2022-11-08T18:26:31.744Z,11.70
2022-11-08T18:28:58.605Z,11.70
2022-11-08T18:31:26.189Z,11.70
2022-11-08T18:33:52.882Z,11.80
2022-11-08T18:36:21.478Z,11.80
2022-11-08T18:38:49.131Z,11.80
2022-11-08T18:41:20.400Z,11.90
2022-11-08T18:43:47.314Z,11.90
2022-11-08T18:46:20.506Z,12.00
2022-11-08T18:48:47.952Z,12.10
2022-11-08T18:51:15.778Z,12.10
2022-11-08T18:53:42.726Z,12.10
2022-11-08T18:56:10.000Z,12.10
2022-11-08T18:58:36.721Z,12.10
2022-11-08T19:01:04.715Z,12.10
2022-11-08T19:03:31.529Z,12.10
2022-11-08T19:05:58.386Z,12.20
2022-11-08T19:08:26.913Z,12.10
2022-11-08T19:11:00.462Z,12.00
2022-11-08T19:13:28.811Z,12.00
2022-11-08T19:16:16.698Z,12.00
2022-11-08T19:18:44.085Z,12.00
2022-11-08T19:21:13.748Z,12.00
2022-11-08T19:23:40.509Z,12.00
2022-11-08T19:26:10.188Z,11.90
2022-11-08T19:28:38.803Z,11.90
2022-11-08T19:31:05.956Z,11.90
2022-11-08T19:33:33.305Z,11.90
2022-11-08T19:36:06.609Z,11.90
2022-11-08T19:38:33.706Z,11.80
2022-11-08T19:41:04.463Z,11.80
2022-11-08T19:43:33.402Z,11.90
2022-11-08T19:46:04.417Z,11.80
2022-11-08T19:48:32.334Z,11.90
2022-11-08T19:51:01.711Z,11.90
2022-11-08T19:53:28.811Z,11.90
2022-11-08T19:56:02.779Z,11.90
2022-11-08T19:58:31.214Z,11.90
2022-11-08T20:00:58.051Z,11.90
2022-11-08T20:03:24.818Z,12.00
2022-11-08T20:05:52.618Z,12.00
2022-11-08T20:08:20.347Z,11.90
2022-11-08T20:10:47.500Z,11.90
2022-11-08T20:13:14.263Z,11.80
2022-11-08T20:15:41.052Z,11.80
2022-11-08T20:18:09.638Z,11.80
2022-11-08T20:20:40.340Z,11.80
2022-11-08T20:23:07.852Z,11.80
2022-11-08T20:25:35.196Z,11.90
2022-11-08T20:28:02.423Z,11.90
2022-11-08T20:30:31.915Z,11.80
2022-11-08T20:32:59.963Z,11.80
2022-11-08T20:35:26.907Z,11.70
2022-11-08T20:37:57.047Z,11.80
2022-11-08T20:40:24.092Z,11.80
2022-11-08T20:42:50.761Z,11.80
2022-11-08T20:45:17.791Z,11.80
2022-11-08T20:47:48.387Z,11.80
2022-11-08T20:50:15.609Z,11.90
2022-11-08T20:52:44.900Z,11.90
2022-11-08T20:55:11.643Z,11.90
2022-11-08T20:57:38.434Z,12.00
2022-11-08T21:00:13.272Z,12.00
2022-11-08T21:02:40.769Z,11.90
2022-11-08T21:05:07.937Z,11.90
2022-11-08T21:10:42.138Z,11.90
2022-11-08T21:13:08.341Z,11.80
2022-11-08T21:15:35.679Z,11.90
2022-11-08T21:18:02.568Z,11.90
2022-11-08T21:20:29.808Z,11.90
2022-11-08T21:22:56.852Z,12.00
2022-11-08T21:25:23.672Z,12.00
2022-11-08T21:27:50.496Z,12.00
2022-11-08T21:30:17.268Z,12.10
2022-11-08T21:32:44.021Z,12.10
2022-11-08T21:35:11.376Z,12.10
2022-11-08T21:37:38.093Z,12.10
2022-11-08T21:40:05.428Z,12.10
2022-11-08T21:42:38.044Z,12.10
2022-11-08T21:45:06.889Z,12.10
2022-11-08T21:47:33.798Z,12.00
2022-11-08T21:50:00.678Z,12.10
2022-11-08T21:52:27.601Z,12.00
2022-11-08T21:54:54.613Z,12.00
2022-11-08T21:57:21.463Z,12.00
2022-11-08T21:59:48.316Z,12.00
2022-11-08T22:02:15.762Z,11.90
2022-11-08T22:04:42.609Z,11.90
2022-11-08T22:07:09.867Z,11.90
2022-11-08T22:09:37.093Z,11.90
2022-11-08T22:12:04.767Z,11.90
2022-11-08T22:14:31.694Z,11.90
2022-11-08T22:16:58.619Z,11.90
2022-11-08T22:19:25.443Z,11.80
2022-11-08T22:21:52.220Z,11.80
2022-11-08T22:24:20.522Z,11.80
2022-11-08T22:26:48.263Z,11.70
2022-11-08T22:29:15.422Z,11.70
2022-11-08T22:31:42.332Z,11.70
2022-11-08T22:34:09.498Z,11.60
2022-11-08T22:36:41.183Z,11.60
2022-11-08T22:39:15.169Z,11.60
2022-11-08T22:41:43.025Z,11.60
2022-11-08T22:44:12.293Z,11.60
2022-11-08T22:46:40.400Z,11.60
2022-11-08T22:49:07.322Z,11.70
2022-11-08T22:51:36.598Z,11.70
2022-11-08T22:54:03.858Z,11.70
2022-11-08T22:56:30.867Z,11.70
2022-11-08T22:58:57.662Z,11.70
2022-11-08T23:01:25.413Z,11.70
2022-11-08T23:03:52.159Z,11.60
2022-11-08T23:06:19.028Z,11.60
2022-11-08T23:08:46.646Z,11.60
2022-11-08T23:11:31.858Z,11.60
2022-11-08T23:14:17.179Z,11.60
2022-11-08T23:16:44.990Z,11.60
2022-11-08T23:19:36.715Z,11.60
2022-11-08T23:22:23.433Z,11.50
2022-11-08T23:24:50.173Z,11.60
2022-11-08T23:27:35.994Z,11.60
2022-11-08T23:30:22.191Z,11.60
2022-11-08T23:32:50.067Z,11.60
2022-11-08T23:35:17.891Z,11.70
2022-11-08T23:37:44.705Z,11.60
2022-11-08T23:40:31.599Z,11.60
2022-11-08T23:43:29.016Z,11.70
2022-11-08T23:45:55.975Z,11.70
2022-11-08T23:48:22.834Z,11.70
2022-11-08T23:50:51.081Z,11.70
2022-11-08T23:53:19.017Z,11.70
2022-11-08T23:55:46.097Z,11.70
2022-11-08T23:58:14.125Z,11.70
